Lake Panamoka, New York
Current Conditions -  °F | °C
As of 3:56 PM on Thursday 20 Nov 2014 (Local Time) from KHWV Reporting Station
Clear Clear  
Wind Chill: 39°   Ceiling: Unl
Heat Index: 44°   Visibility: 10mi
Dew Point: 25°   Wind: 9mph
Humidity: 47%   Direction: 240°WSW
Pressure: 29.85"   Gusts: NA
Location:  40.8942°N, 72.8763°W
Report Text: KHWV 202056Z AUTO 24008KT 10SM CLR 07/M04 A2985 RMK AO2 SLP109 T00671039 55001 TSNO
Loading
Personal Weather Stations






























Interactive Weather Map New forecast layout! Learn more

10-Day Weather Forecast

Advertisements
Track Severe Weather on mobile